Time;durP1;ratioP1;P1;durP2;ratioP2;P2;SDS_P1;SDS_P2;PMS_P1;PMS_P2;Temp;Humidity;BMP_temperature;BMP_pressure;BME280_temperature;BME280_humidity;BME280_pressure;Samples;Min_cycle;Max_cycle;Signal;HPM_P1;HPM_P2
2021/05/06 00:04:35;;;;;;;7.00;5.68;;;8.00;99.90;;;;;;2080738;28;20481;-69
2021/05/06 00:30:14;;;;;;;5.45;4.82;;;8.10;99.90;;;;;;2080094;28;20025;-69
2021/05/06 00:32:36;;;;;;;9.35;5.00;;;8.10;99.90;;;;;;2079318;28;20389;-69
2021/05/06 00:33:37;;;;;;;7.43;5.28;;;8.10;99.90;;;;;;2080162;28;20101;-69
2021/05/06 00:34:37;;;;;;;7.10;4.85;;;8.20;99.90;;;;;;2079402;28;20029;-69
2021/05/06 00:35:38;;;;;;;6.15;5.25;;;8.20;99.90;;;;;;2079390;28;20501;-69
2021/05/06 00:36:39;;;;;;;6.47;4.70;;;8.20;99.90;;;;;;2079990;28;20021;-69
2021/05/06 00:37:54;;;;;;;7.72;4.90;;;8.20;99.90;;;;;;2080050;28;20037;-69
2021/05/06 00:38:59;;;;;;;8.23;4.72;;;8.20;99.90;;;;;;2074424;28;20033;-69
2021/05/06 00:40:06;;;;;;;9.18;4.85;;;8.20;99.90;;;;;;2080102;28;20100;-69
2021/05/06 00:41:31;;;;;;;4.95;4.45;;;8.20;99.90;;;;;;2079753;28;20029;-69
2021/05/06 00:45:47;;;;;;;7.35;4.88;;;8.30;99.90;;;;;;2080215;28;20116;-69
2021/05/06 00:54:56;;;;;;;9.60;6.03;;;8.20;99.90;;;;;;2080211;28;20041;-69
2021/05/06 01:00:09;;;;;;;7.93;5.68;;;8.20;99.90;;;;;;2080322;28;20025;-69
2021/05/06 01:05:23;;;;;;;7.75;6.00;;;8.30;99.90;;;;;;2079893;28;20108;-69
2021/05/06 01:05:59;;;;;;;6.68;5.68;;;8.30;99.90;;;;;;2074850;28;20029;-69
2021/05/06 01:09:14;;;;;;;6.25;5.63;;;8.20;99.90;;;;;;2079600;28;20022;-70
2021/05/06 01:12:28;;;;;;;8.93;5.32;;;8.30;99.90;;;;;;2079582;28;20029;-69
2021/05/06 01:13:31;;;;;;;9.30;5.38;;;8.20;99.90;;;;;;2079411;28;20026;-69
2021/05/06 01:14:32;;;;;;;6.53;4.95;;;8.20;99.90;;;;;;2079836;28;20034;-69
2021/05/06 01:15:33;;;;;;;7.65;5.25;;;8.20;99.90;;;;;;2079802;28;20017;-69
2021/05/06 01:16:34;;;;;;;9.63;6.10;;;8.20;99.90;;;;;;2078459;28;20026;-69
2021/05/06 01:17:34;;;;;;;8.45;5.65;;;8.20;99.90;;;;;;2074132;28;20428;-70
2021/05/06 01:18:35;;;;;;;8.68;5.90;;;8.20;99.90;;;;;;2075413;28;20021;-69
2021/05/06 01:19:35;;;;;;;6.43;5.10;;;8.20;99.90;;;;;;2082170;28;20049;-70
2021/05/06 01:20:41;;;;;;;6.70;6.03;;;8.20;99.90;;;;;;2081870;28;20384;-69
2021/05/06 01:21:42;;;;;;;7.80;5.80;;;8.20;99.90;;;;;;2083322;28;20025;-69
2021/05/06 01:22:42;;;;;;;8.93;5.60;;;8.20;99.90;;;;;;2079183;28;20049;-70
2021/05/06 01:23:45;;;;;;;8.30;5.57;;;8.20;99.90;;;;;;2079648;28;20140;-70
2021/05/06 01:24:51;;;;;;;8.25;5.32;;;8.10;99.90;;;;;;2079683;28;20091;-70
2021/05/06 01:26:04;;;;;;;6.07;4.68;;;8.10;99.90;;;;;;2079785;28;20029;-69
2021/05/06 01:27:12;;;;;;;7.60;5.68;;;8.10;99.90;;;;;;2080022;28;20041;-69
2021/05/06 01:28:15;;;;;;;8.45;4.70;;;8.10;99.90;;;;;;2076028;28;20021;-69
2021/05/06 01:29:23;;;;;;;10.60;6.60;;;8.10;99.90;;;;;;2076627;28;20535;-69
2021/05/06 01:31:31;;;;;;;10.15;6.45;;;8.10;99.90;;;;;;2079369;28;20381;-69
2021/05/06 01:32:42;;;;;;;8.63;5.57;;;8.10;99.90;;;;;;2078993;28;20038;-69
2021/05/06 01:34:06;;;;;;;;;;;8.10;99.90;;;;;;2073550;28;20021;-69
2021/05/06 01:35:12;;;;;;;7.95;6.28;;;8.00;99.90;;;;;;2079136;28;19916;-69
2021/05/06 01:37:28;;;;;;;7.28;6.05;;;8.00;99.90;;;;;;2079846;28;20108;-69
2021/05/06 01:41:02;;;;;;;11.65;5.60;;;8.00;99.90;;;;;;2079696;28;20034;-69
2021/05/06 01:45:01;;;;;;;7.47;6.35;;;7.90;99.90;;;;;;2070382;28;20037;-69
2021/05/06 01:50:38;;;;;;;8.50;6.10;;;7.80;99.90;;;;;;2079491;28;20029;-69
2021/05/06 01:59:38;;;;;;;9.77;6.72;;;7.70;99.90;;;;;;2079182;28;20143;-69
2021/05/06 02:00:42;;;;;;;7.03;6.22;;;7.70;99.90;;;;;;2076243;28;20105;-69
2021/05/06 02:01:42;;;;;;;7.63;6.15;;;7.70;99.90;;;;;;2072681;28;20137;-69
2021/05/06 02:02:44;;;;;;;8.45;5.95;;;7.70;99.90;;;;;;2080235;28;20025;-69
2021/05/06 02:03:45;;;;;;;9.75;6.63;;;7.70;99.90;;;;;;2080622;28;20055;-69
2021/05/06 02:04:45;;;;;;;9.55;6.60;;;7.70;99.90;;;;;;2080600;28;20021;-69
2021/05/06 02:05:46;;;;;;;8.07;6.10;;;7.70;99.90;;;;;;2080539;28;20061;-69
2021/05/06 02:06:47;;;;;;;7.22;6.50;;;7.70;99.90;;;;;;2080789;28;20034;-69
2021/05/06 02:07:48;;;;;;;9.05;5.88;;;7.70;99.90;;;;;;2080898;28;20654;-69
2021/05/06 02:08:49;;;;;;;8.75;6.00;;;7.70;99.90;;;;;;2080590;28;20404;-69
2021/05/06 02:09:50;;;;;;;8.35;6.60;;;7.70;99.90;;;;;;2080735;28;20029;-69
2021/05/06 02:10:55;;;;;;;6.85;6.20;;;7.70;99.90;;;;;;2080925;28;20024;-69
2021/05/06 02:11:56;;;;;;;7.72;6.80;;;7.70;99.90;;;;;;2080931;28;20028;-69
2021/05/06 02:12:56;;;;;;;7.05;6.40;;;7.70;99.90;;;;;;2080196;28;20036;-69
2021/05/06 02:13:57;;;;;;;10.18;5.82;;;7.70;99.90;;;;;;2080791;28;20090;-69
2021/05/06 02:15:04;;;;;;;6.57;5.93;;;7.70;99.90;;;;;;2081010;28;20060;-69
2021/05/06 02:16:14;;;;;;;6.60;5.90;;;7.70;99.90;;;;;;2072550;28;20030;-69
2021/05/06 02:17:15;;;;;;;7.18;6.47;;;7.70;99.90;;;;;;2080594;28;20014;-69
2021/05/06 02:18:16;;;;;;;8.35;6.22;;;7.70;99.90;;;;;;2080730;28;20017;-69
2021/05/06 02:19:26;;;;;;;8.32;6.43;;;7.70;99.90;;;;;;2080929;28;20079;-69
2021/05/06 02:20:26;;;;;;;10.50;7.18;;;7.70;99.90;;;;;;2080856;28;20117;-69
2021/05/06 02:21:27;;;;;;;8.05;6.22;;;7.70;99.90;;;;;;2080552;28;20042;-69
2021/05/06 02:22:29;;;;;;;6.97;6.03;;;7.70;99.90;;;;;;2080471;28;20485;-69
2021/05/06 02:23:29;;;;;;;8.07;6.68;;;7.70;99.90;;;;;;2080816;28;20023;-70
2021/05/06 02:24:30;;;;;;;7.47;6.63;;;7.70;99.90;;;;;;2080531;28;20060;-69
2021/05/06 02:25:30;;;;;;;8.13;6.07;;;7.70;99.90;;;;;;2080904;28;20037;-69
2021/05/06 02:26:31;;;;;;;8.02;6.53;;;7.70;99.90;;;;;;2080732;28;20091;-69
2021/05/06 02:27:32;;;;;;;7.22;6.50;;;7.70;99.90;;;;;;2080969;28;20038;-69
2021/05/06 02:28:32;;;;;;;7.32;6.50;;;7.70;99.90;;;;;;2080798;28;20485;-69
2021/05/06 02:29:33;;;;;;;9.30;6.88;;;7.70;99.90;;;;;;2079818;28;20091;-69
2021/05/06 02:30:34;;;;;;;7.28;6.30;;;7.70;99.90;;;;;;2071577;28;20034;-69
2021/05/06 02:31:34;;;;;;;7.97;6.68;;;7.80;99.90;;;;;;2077275;28;20029;-69
2021/05/06 02:32:35;;;;;;;8.35;6.93;;;7.80;99.90;;;;;;2071969;28;20385;-69
2021/05/06 02:33:36;;;;;;;6.57;5.95;;;7.80;99.90;;;;;;2080543;28;20018;-69
2021/05/06 02:34:37;;;;;;;8.85;6.18;;;7.80;99.90;;;;;;2080602;28;20021;-69
2021/05/06 02:35:38;;;;;;;9.85;6.60;;;7.80;99.90;;;;;;2080520;28;20049;-69
2021/05/06 02:36:39;;;;;;;8.73;6.70;;;7.80;99.90;;;;;;2080327;28;20021;-69
2021/05/06 02:37:40;;;;;;;9.10;7.05;;;7.80;99.90;;;;;;2080590;28;20036;-69
2021/05/06 02:38:41;;;;;;;8.18;6.43;;;7.80;99.90;;;;;;2080852;28;20052;-69
2021/05/06 02:39:44;;;;;;;8.85;7.10;;;7.80;99.90;;;;;;2080666;28;20053;-69
2021/05/06 02:40:45;;;;;;;9.75;6.95;;;7.80;99.90;;;;;;2080148;28;20102;-69
2021/05/06 02:41:46;;;;;;;9.25;7.57;;;7.80;99.90;;;;;;2079772;28;20030;-69
2021/05/06 02:42:46;;;;;;;10.20;6.57;;;7.80;99.90;;;;;;2079249;28;20051;-69
2021/05/06 02:43:47;;;;;;;7.47;6.07;;;7.70;99.90;;;;;;2080191;28;20381;-68
2021/05/06 02:44:48;;;;;;;8.02;6.72;;;7.70;99.90;;;;;;2080458;28;20036;-69
2021/05/06 02:45:48;;;;;;;8.52;6.45;;;7.70;99.90;;;;;;2080513;28;20030;-69
2021/05/06 02:46:49;;;;;;;7.72;6.20;;;7.70;99.90;;;;;;2081835;28;20032;-69
2021/05/06 02:47:49;;;;;;;7.88;6.15;;;7.70;99.90;;;;;;2082220;28;20030;-69
2021/05/06 02:48:50;;;;;;;8.88;6.13;;;7.70;99.90;;;;;;2081693;28;20044;-69
2021/05/06 02:49:51;;;;;;;7.95;6.82;;;7.70;99.90;;;;;;2082411;28;20039;-69
2021/05/06 02:50:56;;;;;;;8.75;5.80;;;7.70;99.90;;;;;;2081893;28;20026;-69
2021/05/06 02:52:10;;;;;;;9.30;6.88;;;7.70;99.90;;;;;;2082223;28;20036;-69
2021/05/06 02:53:12;;;;;;;10.45;6.38;;;7.70;99.90;;;;;;2082196;28;20389;-69
2021/05/06 02:54:13;;;;;;;9.40;6.82;;;7.70;99.90;;;;;;2081279;28;20029;-68
2021/05/06 02:56:00;;;;;;;10.63;6.82;;;7.70;99.90;;;;;;2084074;28;20021;-69
2021/05/06 02:56:50;;;;;;;8.38;6.15;;;7.70;99.90;;;;;;2073923;28;20118;-69
2021/05/06 03:02:43;;;;;;;10.13;6.45;;;7.70;99.90;;;;;;2065819;28;20038;-69
2021/05/06 03:03:41;;;;;;;8.55;7.38;;;7.80;99.90;;;;;;2081109;28;20025;-69
2021/05/06 03:04:44;;;;;;;9.88;7.57;;;7.80;99.90;;;;;;2081401;28;20694;-69
2021/05/06 03:05:50;;;;;;;9.38;7.90;;;7.80;99.90;;;;;;2080783;28;20425;-69
2021/05/06 03:07:03;;;;;;;10.45;7.78;;;7.80;99.90;;;;;;2081304;28;20025;-69
2021/05/06 03:08:11;;;;;;;10.73;8.60;;;7.90;99.90;;;;;;2080913;28;20111;-69
2021/05/06 03:13:01;;;;;;;13.70;8.10;;;7.80;99.90;;;;;;2080304;28;21181;-69
2021/05/06 03:14:33;;;;;;;9.75;7.63;;;7.80;99.90;;;;;;2080455;28;20030;-69
2021/05/06 03:23:21;;;;;;;7.15;6.15;;;7.60;99.90;;;;;;2080603;28;20029;-69
2021/05/06 03:24:32;;;;;;;10.65;6.90;;;7.60;99.90;;;;;;2080439;28;20087;-69
2021/05/06 03:25:33;;;;;;;7.22;6.53;;;7.60;99.90;;;;;;2072606;28;20095;-69
2021/05/06 03:26:33;;;;;;;9.23;6.13;;;7.60;99.90;;;;;;2075663;28;20025;-69
2021/05/06 03:27:37;;;;;;;8.25;6.60;;;7.70;99.90;;;;;;2080490;28;20030;-68
2021/05/06 03:28:42;;;;;;;9.57;6.93;;;7.70;99.90;;;;;;2080600;28;20056;-69
2021/05/06 03:29:57;;;;;;;6.57;5.90;;;7.70;99.90;;;;;;2078146;28;20117;-69
2021/05/06 03:31:18;;;;;;;7.57;5.25;;;7.70;99.90;;;;;;2080348;28;20121;-69
2021/05/06 03:35:12;;;;;;;5.65;5.15;;;7.60;99.90;;;;;;2080483;28;20436;-69
2021/05/06 03:42:01;;;;;;;6.85;5.45;;;7.60;99.90;;;;;;2079158;28;20021;-69
2021/05/06 03:47:25;;;;;;;5.45;4.85;;;7.60;99.90;;;;;;2071584;28;20030;-69
2021/05/06 03:48:56;;;;;;;11.82;5.38;;;7.60;99.90;;;;;;2074007;28;20017;-68
2021/05/06 04:14:37;;;;;;;10.20;5.63;;;7.60;99.90;;;;;;2070933;28;20061;-68
2021/05/06 04:18:24;;;;;;;9.55;6.13;;;7.50;99.90;;;;;;2077038;28;20490;-68
2021/05/06 04:35:38;;;;;;;10.75;7.35;;;7.70;99.90;;;;;;2079325;28;20033;-68
2021/05/06 04:37:50;;;;;;;12.02;6.63;;;7.70;99.90;;;;;;2080124;28;20100;-68
2021/05/06 04:38:51;;;;;;;14.45;6.90;;;7.70;99.90;;;;;;2080342;28;20033;-69
2021/05/06 04:39:59;;;;;;;8.38;7.00;;;7.80;99.90;;;;;;2079712;28;20060;-69
2021/05/06 04:41:13;;;;;;;11.18;7.40;;;7.80;99.90;;;;;;2080209;28;20022;-68
2021/05/06 04:44:16;;;;;;;10.77;7.33;;;7.80;99.90;;;;;;2080149;28;20073;-68
2021/05/06 04:45:30;;;;;;;11.20;7.80;;;7.80;99.90;;;;;;2073678;28;20265;-68
2021/05/06 04:53:28;;;;;;;10.50;7.80;;;7.80;99.90;;;;;;2074695;28;20026;-69
2021/05/06 04:54:30;;;;;;;8.88;8.00;;;7.80;99.90;;;;;;2075641;28;20030;-68
2021/05/06 04:55:38;;;;;;;8.88;7.55;;;7.80;99.90;;;;;;2078285;28;20029;-68
2021/05/06 04:57:58;;;;;;;9.23;8.02;;;7.80;99.90;;;;;;2075575;28;20180;-69
2021/05/06 04:59:25;;;;;;;11.13;8.18;;;7.80;99.90;;;;;;2075286;28;20469;-69
2021/05/06 05:04:35;;;;;;;11.15;8.25;;;7.80;99.90;;;;;;2079547;28;20029;-69
2021/05/06 05:05:38;;;;;;;9.23;8.20;;;7.90;99.90;;;;;;2081251;28;20021;-68
2021/05/06 05:06:47;;;;;;;8.80;7.90;;;7.80;99.90;;;;;;2080891;28;20041;-68
2021/05/06 05:07:51;;;;;;;8.93;8.02;;;7.80;99.90;;;;;;2078899;28;20018;-69
2021/05/06 05:13:14;;;;;;;8.27;7.25;;;7.90;99.90;;;;;;2067963;28;20037;-68
2021/05/06 05:14:31;;;;;;;9.35;7.80;;;7.90;99.90;;;;;;2080879;28;20049;-68
2021/05/06 05:24:02;;;;;;;8.20;7.20;;;8.00;99.90;;;;;;2080164;28;20026;-69
2021/05/06 05:25:06;;;;;;;9.13;8.23;;;8.00;99.90;;;;;;2080743;28;20128;-69
2021/05/06 05:26:10;;;;;;;8.48;7.65;;;8.00;99.90;;;;;;2090819;28;20048;-69
2021/05/06 05:27:10;;;;;;;9.80;7.95;;;8.00;99.90;;;;;;2087559;28;20029;-69
2021/05/06 05:28:11;;;;;;;9.52;8.55;;;8.00;99.90;;;;;;2078773;28;20033;-68
2021/05/06 05:29:11;;;;;;;9.90;8.65;;;8.00;99.90;;;;;;2078702;28;20099;-69
2021/05/06 05:30:12;;;;;;;10.32;9.15;;;8.00;99.90;;;;;;2079381;28;20027;-69
2021/05/06 05:31:13;;;;;;;10.93;9.90;;;8.10;99.90;;;;;;2077022;28;20025;-69
2021/05/06 05:32:14;;;;;;;11.32;9.63;;;8.10;99.90;;;;;;2072762;28;20033;-68
2021/05/06 05:33:17;;;;;;;10.30;9.30;;;8.10;99.90;;;;;;2074720;28;20037;-68
2021/05/06 05:34:33;;;;;;;12.38;11.15;;;8.10;99.90;;;;;;2078696;28;20020;-68
2021/05/06 05:36:34;;;;;;;13.65;10.45;;;8.10;99.90;;;;;;2077051;28;20029;-68
2021/05/06 05:37:39;;;;;;;11.70;9.27;;;8.10;99.90;;;;;;2077132;28;20025;-68
2021/05/06 05:40:00;;;;;;;14.43;10.15;;;8.10;99.90;;;;;;2080390;28;20021;-69
2021/05/06 05:41:25;;;;;;;11.90;10.48;;;8.10;99.90;;;;;;2077585;28;20401;-69
2021/05/06 05:42:31;;;;;;;14.35;10.02;;;8.10;99.90;;;;;;2075974;28;20042;-68
2021/05/06 05:54:33;;;;;;;13.05;11.55;;;8.10;99.90;;;;;;2070465;28;20735;-68
2021/05/06 05:54:46;;;;;;;14.25;12.43;;;8.10;99.90;;;;;;2072921;28;20030;-69
2021/05/06 05:55:47;;;;;;;16.83;15.02;;;8.10;99.90;;;;;;2075159;28;20042;-68
2021/05/06 05:56:50;;;;;;;16.88;15.18;;;8.10;99.90;;;;;;2071239;28;20021;-68
2021/05/06 05:57:51;;;;;;;17.33;15.52;;;8.10;99.90;;;;;;2076743;28;20026;-68
2021/05/06 05:58:54;;;;;;;17.27;15.48;;;8.10;99.90;;;;;;2075039;28;20036;-68
2021/05/06 05:59:54;;;;;;;17.98;15.80;;;8.20;99.90;;;;;;2072854;28;20089;-68
2021/05/06 06:00:55;;;;;;;17.00;15.23;;;8.20;99.90;;;;;;2076238;28;20034;-68
2021/05/06 06:01:55;;;;;;;16.92;15.32;;;8.20;99.90;;;;;;2074998;28;20026;-68
2021/05/06 06:02:56;;;;;;;15.80;14.10;;;8.20;99.90;;;;;;2074374;28;20057;-68
2021/05/06 06:03:56;;;;;;;16.58;14.93;;;8.20;99.90;;;;;;2075037;28;20022;-68
2021/05/06 06:04:57;;;;;;;17.35;15.65;;;8.30;99.90;;;;;;2086462;28;20049;-68
2021/05/06 06:05:58;;;;;;;17.00;15.40;;;8.30;99.90;;;;;;2081226;28;20568;-68
2021/05/06 06:06:59;;;;;;;17.60;15.80;;;8.30;99.90;;;;;;2083655;28;20116;-68
2021/05/06 06:08:00;;;;;;;15.95;14.25;;;8.30;99.90;;;;;;2079745;28;20036;-69
2021/05/06 06:09:00;;;;;;;17.58;14.90;;;8.30;99.90;;;;;;2079532;28;20041;-69
2021/05/06 06:10:02;;;;;;;17.63;15.82;;;8.30;99.90;;;;;;2079404;28;20083;-69
2021/05/06 06:11:04;;;;;;;16.65;15.02;;;8.30;99.90;;;;;;2079520;28;20032;-68
2021/05/06 06:12:04;;;;;;;16.58;14.88;;;8.40;99.90;;;;;;2079382;28;20041;-68
2021/05/06 06:13:05;;;;;;;16.80;15.27;;;8.40;99.90;;;;;;2078996;28;20025;-69
2021/05/06 06:14:07;;;;;;;16.42;14.85;;;8.40;99.90;;;;;;2079557;28;20022;-69
2021/05/06 06:15:15;;;;;;;17.38;15.68;;;8.40;99.90;;;;;;2079435;28;20453;-69
2021/05/06 06:16:23;;;;;;;16.15;14.48;;;8.40;99.90;;;;;;2079379;28;20064;-68
2021/05/06 06:17:23;;;;;;;19.00;14.48;;;8.40;99.90;;;;;;2081145;28;20020;-69
2021/05/06 06:19:35;;;;;;;15.38;13.88;;;8.50;99.90;;;;;;2076152;28;20029;-68
2021/05/06 06:20:37;;;;;;;17.45;15.85;;;8.50;99.90;;;;;;2077702;28;20063;-68
2021/05/06 06:22:38;;;;;;;19.42;15.27;;;8.50;99.90;;;;;;2083674;28;20029;-68
2021/05/06 06:23:39;;;;;;;17.10;15.40;;;8.50;99.90;;;;;;2085030;28;20489;-68
2021/05/06 06:24:40;;;;;;;17.27;15.45;;;8.60;99.90;;;;;;2081036;28;20372;-68
2021/05/06 06:25:41;;;;;;;18.85;16.00;;;8.60;99.90;;;;;;2077205;28;20333;-68
2021/05/06 06:26:42;;;;;;;19.65;17.67;;;8.60;99.90;;;;;;2080450;28;20048;-68
2021/05/06 06:27:43;;;;;;;18.00;16.20;;;8.60;99.90;;;;;;2078065;28;20068;-68
2021/05/06 06:28:46;;;;;;;18.40;16.70;;;8.60;99.90;;;;;;2081263;28;20029;-68
2021/05/06 06:29:47;;;;;;;18.25;16.38;;;8.70;99.90;;;;;;2080609;28;20029;-68
2021/05/06 06:30:48;;;;;;;18.17;16.52;;;8.70;99.90;;;;;;2072932;28;20046;-68
2021/05/06 06:31:50;;;;;;;17.73;16.20;;;8.70;99.90;;;;;;2081199;28;20064;-68
2021/05/06 06:32:52;;;;;;;18.02;16.40;;;8.70;99.90;;;;;;2080636;28;20384;-69
2021/05/06 06:33:53;;;;;;;17.98;16.17;;;8.80;99.90;;;;;;2081047;28;20034;-69
2021/05/06 06:34:54;;;;;;;18.60;16.92;;;8.80;99.90;;;;;;2081097;28;20029;-68
2021/05/06 06:35:54;;;;;;;19.33;16.42;;;8.80;99.90;;;;;;2080927;28;20028;-68
2021/05/06 06:36:55;;;;;;;19.88;17.95;;;8.80;99.90;;;;;;2081192;28;20102;-68
2021/05/06 06:37:55;;;;;;;20.77;18.77;;;8.80;99.90;;;;;;2081060;28;20021;-68
2021/05/06 06:38:56;;;;;;;19.45;17.55;;;8.80;99.90;;;;;;2079165;28;20026;-69
2021/05/06 06:39:57;;;;;;;21.83;19.83;;;8.80;99.90;;;;;;2080857;28;20057;-68
2021/05/06 06:40:59;;;;;;;19.95;18.02;;;8.80;99.90;;;;;;2081141;28;20040;-68
2021/05/06 06:41:59;;;;;;;19.38;17.58;;;8.80;99.90;;;;;;2080959;28;20032;-68
2021/05/06 06:43:00;;;;;;;19.27;17.35;;;8.80;99.90;;;;;;2080207;28;20037;-68
2021/05/06 06:44:01;;;;;;;20.05;18.13;;;8.80;99.90;;;;;;2080856;28;20377;-68
2021/05/06 06:45:03;;;;;;;17.83;16.00;;;8.80;99.90;;;;;;2080834;28;20521;-69
2021/05/06 06:46:04;;;;;;;19.08;17.23;;;8.80;99.90;;;;;;2080667;28;20026;-68
2021/05/06 06:47:07;;;;;;;19.48;17.00;;;8.90;99.90;;;;;;2080672;28;20025;-68
2021/05/06 06:48:09;;;;;;;17.63;15.95;;;8.90;99.90;;;;;;2080761;28;20389;-68
2021/05/06 06:49:13;;;;;;;18.75;16.17;;;8.80;99.90;;;;;;2080029;28;20431;-69
2021/05/06 06:50:13;;;;;;;17.92;16.13;;;8.80;99.90;;;;;;2083573;28;20021;-68
2021/05/06 06:51:15;;;;;;;20.00;17.98;;;8.80;99.90;;;;;;2085352;28;20660;-69
2021/05/06 06:52:15;;;;;;;19.15;17.27;;;8.80;99.90;;;;;;2084558;28;20018;-69
2021/05/06 06:53:17;;;;;;;18.40;16.63;;;8.80;99.90;;;;;;2081050;28;20097;-69
2021/05/06 06:54:17;;;;;;;17.42;15.80;;;8.80;99.90;;;;;;2080979;28;20032;-68
2021/05/06 06:55:18;;;;;;;17.63;15.88;;;8.80;99.90;;;;;;2082926;28;20017;-68
2021/05/06 06:56:19;;;;;;;19.90;16.17;;;8.80;99.90;;;;;;2080714;28;20453;-68
2021/05/06 06:57:20;;;;;;;18.05;16.13;;;8.80;99.90;;;;;;2080925;28;20362;-68
2021/05/06 06:58:20;;;;;;;18.05;16.25;;;8.80;99.90;;;;;;2080947;28;20128;-68
2021/05/06 06:59:23;;;;;;;18.55;16.83;;;8.80;99.90;;;;;;2080929;28;20033;-68
2021/05/06 07:00:23;;;;;;;18.25;16.45;;;8.90;99.90;;;;;;2080849;28;20029;-69
2021/05/06 07:01:24;;;;;;;18.13;16.42;;;8.80;99.90;;;;;;2080919;28;20033;-69
2021/05/06 07:02:24;;;;;;;17.67;15.88;;;8.80;99.90;;;;;;2080463;28;20432;-68
2021/05/06 07:03:25;;;;;;;18.85;17.08;;;8.90;99.90;;;;;;2080926;28;20021;-69
2021/05/06 07:04:26;;;;;;;18.10;16.30;;;8.90;99.90;;;;;;2081021;28;20512;-69
2021/05/06 07:05:26;;;;;;;19.45;17.45;;;8.90;99.90;;;;;;2080983;28;20035;-68
2021/05/06 07:06:27;;;;;;;19.20;17.50;;;8.90;99.90;;;;;;2081129;28;20068;-68
2021/05/06 07:07:27;;;;;;;17.58;15.88;;;8.90;99.90;;;;;;2080515;28;20091;-68
2021/05/06 07:08:32;;;;;;;18.70;16.75;;;9.00;99.90;;;;;;2080762;28;20033;-69
2021/05/06 07:09:32;;;;;;;17.83;16.05;;;9.00;99.90;;;;;;2080616;28;20060;-68
2021/05/06 07:10:33;;;;;;;18.50;16.70;;;9.00;99.90;;;;;;2080468;28;20056;-69
2021/05/06 07:11:34;;;;;;;16.88;15.18;;;9.00;99.90;;;;;;2080421;28;20457;-69
2021/05/06 07:12:34;;;;;;;18.55;16.60;;;9.00;99.90;;;;;;2079662;28;20108;-69
2021/05/06 07:13:35;;;;;;;17.75;16.05;;;9.00;99.90;;;;;;2079954;28;20096;-69
2021/05/06 07:14:37;;;;;;;19.58;16.95;;;9.10;99.90;;;;;;2072718;28;20479;-69
2021/05/06 07:15:38;;;;;;;19.15;16.15;;;9.10;99.90;;;;;;2080858;28;20052;-69
2021/05/06 07:16:39;;;;;;;17.55;15.80;;;9.10;99.90;;;;;;2080740;28;20761;-68
2021/05/06 07:17:39;;;;;;;17.77;16.08;;;9.10;99.90;;;;;;2080783;28;20051;-68
2021/05/06 07:18:40;;;;;;;17.13;15.43;;;9.10;99.90;;;;;;2079855;28;20044;-68
2021/05/06 07:19:40;;;;;;;17.63;15.90;;;9.20;99.90;;;;;;2080109;28;20092;-68
2021/05/06 07:20:43;;;;;;;18.13;16.25;;;9.20;99.90;;;;;;2072805;28;20034;-68
2021/05/06 07:21:44;;;;;;;16.42;14.93;;;9.20;99.90;;;;;;2078173;28;20034;-68
2021/05/06 07:22:44;;;;;;;17.27;15.15;;;9.20;99.90;;;;;;2080109;28;20095;-68
2021/05/06 07:23:45;;;;;;;16.50;14.80;;;9.30;99.90;;;;;;2080661;28;20107;-68
2021/05/06 07:24:45;;;;;;;16.90;15.35;;;9.30;99.90;;;;;;2080767;28;20030;-68
2021/05/06 07:25:49;;;;;;;16.45;14.95;;;9.30;99.90;;;;;;2080313;28;20104;-68
2021/05/06 07:26:49;;;;;;;15.38;13.88;;;9.30;99.90;;;;;;2079868;28;20029;-69
2021/05/06 07:27:50;;;;;;;15.40;13.88;;;9.40;99.90;;;;;;2079959;28;20037;-69
2021/05/06 07:28:53;;;;;;;15.95;14.35;;;9.40;99.90;;;;;;2072749;28;20034;-69
2021/05/06 07:29:53;;;;;;;16.85;15.05;;;9.40;99.90;;;;;;2078037;28;21036;-69
2021/05/06 07:30:54;;;;;;;18.17;14.82;;;9.50;99.90;;;;;;2079990;28;20460;-69
2021/05/06 07:31:54;;;;;;;15.23;13.75;;;9.60;99.90;;;;;;2072637;28;20050;-69
2021/05/06 07:32:55;;;;;;;13.88;12.57;;;9.60;99.90;;;;;;2075124;28;20030;-69
2021/05/06 07:33:56;;;;;;;13.45;12.15;;;9.60;99.90;;;;;;2080459;28;20026;-69
2021/05/06 07:34:56;;;;;;;14.15;12.85;;;9.70;99.90;;;;;;2080856;28;20017;-69
2021/05/06 07:36:01;;;;;;;16.55;12.90;;;9.80;99.90;;;;;;2080808;28;20449;-69
2021/05/06 07:37:01;;;;;;;13.35;12.15;;;9.80;99.90;;;;;;2080326;28;20155;-69
2021/05/06 07:38:02;;;;;;;16.25;13.88;;;9.80;99.90;;;;;;2079733;28;20068;-69
2021/05/06 07:39:03;;;;;;;14.68;13.30;;;9.90;99.90;;;;;;2080382;28;20028;-69
2021/05/06 07:40:05;;;;;;;14.20;12.10;;;9.90;99.90;;;;;;2080981;28;20461;-69
2021/05/06 07:41:07;;;;;;;13.00;11.75;;;9.90;99.90;;;;;;2079805;28;20025;-69
2021/05/06 07:42:07;;;;;;;13.65;12.48;;;10.00;99.90;;;;;;2079487;28;21494;-69
2021/05/06 07:43:08;;;;;;;14.68;13.23;;;10.00;99.90;;;;;;2078938;28;20424;-68
2021/05/06 07:44:09;;;;;;;14.38;12.82;;;10.00;99.90;;;;;;2079976;28;20017;-68
2021/05/06 07:45:10;;;;;;;14.55;13.05;;;10.00;99.90;;;;;;2079507;28;20032;-68
2021/05/06 07:46:11;;;;;;;13.65;12.32;;;10.10;99.90;;;;;;2080603;28;20533;-69
2021/05/06 07:47:11;;;;;;;14.20;12.80;;;10.10;99.90;;;;;;2080617;28;20159;-69
2021/05/06 07:48:12;;;;;;;13.65;12.27;;;10.10;99.90;;;;;;2080552;28;20021;-69
2021/05/06 07:49:12;;;;;;;14.05;12.60;;;10.10;99.90;;;;;;2080237;28;20035;-69
2021/05/06 07:50:14;;;;;;;14.32;12.80;;;10.10;99.90;;;;;;2080760;28;20110;-68
2021/05/06 07:51:15;;;;;;;12.82;11.73;;;10.20;99.90;;;;;;2080368;28;20100;-69
2021/05/06 07:52:18;;;;;;;13.55;11.73;;;10.20;99.90;;;;;;2079750;28;20029;-69
2021/05/06 07:53:25;;;;;;;13.18;11.98;;;10.20;99.90;;;;;;2080318;28;20064;-69
2021/05/06 07:54:26;;;;;;;12.75;11.60;;;10.20;99.90;;;;;;2080364;28;20473;-69
2021/05/06 07:55:27;;;;;;;13.65;12.32;;;10.20;99.90;;;;;;2080377;28;20380;-69
2021/05/06 07:56:27;;;;;;;14.63;12.55;;;10.20;99.90;;;;;;2080694;28;20138;-69
2021/05/06 07:57:28;;;;;;;14.57;13.18;;;10.30;99.90;;;;;;2080167;28;20033;-69
2021/05/06 07:58:28;;;;;;;13.35;12.15;;;10.30;99.90;;;;;;2080840;28;20025;-69
2021/05/06 07:59:30;;;;;;;14.38;13.07;;;10.40;99.90;;;;;;2080429;28;20083;-69
2021/05/06 08:00:32;;;;;;;14.13;12.68;;;10.40;99.90;;;;;;2079903;28;20041;-69
2021/05/06 08:01:33;;;;;;;13.57;12.48;;;10.40;99.90;;;;;;2080175;28;20025;-69
2021/05/06 08:02:33;;;;;;;14.13;12.68;;;10.40;99.90;;;;;;2079935;28;20061;-69
2021/05/06 08:03:34;;;;;;;13.20;12.00;;;10.40;99.90;;;;;;2079581;28;20500;-69
2021/05/06 08:04:35;;;;;;;13.63;12.27;;;10.50;99.90;;;;;;2079908;28;20037;-69
2021/05/06 08:05:36;;;;;;;12.63;11.32;;;10.50;99.90;;;;;;2079538;28;20025;-69
2021/05/06 08:06:37;;;;;;;13.13;11.82;;;10.40;99.90;;;;;;2080092;28;20091;-68
2021/05/06 08:07:37;;;;;;;13.60;11.77;;;10.50;99.90;;;;;;2080241;28;20037;-69
2021/05/06 08:08:38;;;;;;;13.32;12.00;;;10.40;99.90;;;;;;2079308;28;20045;-69
2021/05/06 08:09:39;;;;;;;13.43;12.02;;;10.50;99.90;;;;;;2076931;28;20057;-69
2021/05/06 08:10:39;;;;;;;13.57;12.27;;;10.50;99.90;;;;;;2079424;28;20529;-69
2021/05/06 08:11:40;;;;;;;12.98;11.77;;;10.50;99.90;;;;;;2074622;28;20048;-69
2021/05/06 08:12:41;;;;;;;13.50;12.30;;;10.60;99.90;;;;;;2079959;28;21015;-69
2021/05/06 08:13:41;;;;;;;13.35;11.20;;;10.60;99.90;;;;;;2080129;28;20084;-69
2021/05/06 08:14:42;;;;;;;13.25;12.00;;;10.70;99.90;;;;;;2080513;28;20018;-69
2021/05/06 08:15:42;;;;;;;13.23;12.02;;;10.70;99.90;;;;;;2079945;28;20040;-69
2021/05/06 08:16:43;;;;;;;11.57;10.57;;;10.80;99.90;;;;;;2078603;28;20397;-69
2021/05/06 08:17:44;;;;;;;12.27;11.00;;;10.80;99.90;;;;;;2080353;28;20021;-69
2021/05/06 08:18:44;;;;;;;13.35;11.27;;;10.80;99.90;;;;;;2080342;28;20014;-69
2021/05/06 08:19:47;;;;;;;13.30;11.05;;;10.90;99.90;;;;;;2080442;28;20469;-69
2021/05/06 08:20:47;;;;;;;12.73;10.75;;;10.90;99.90;;;;;;2079762;28;20026;-69
2021/05/06 08:21:48;;;;;;;12.32;11.00;;;10.90;99.90;;;;;;2080575;28;20017;-69
2021/05/06 08:22:49;;;;;;;12.55;11.35;;;11.00;99.90;;;;;;2079697;28;20032;-69
2021/05/06 08:23:50;;;;;;;12.93;11.63;;;11.00;99.90;;;;;;2083129;28;20053;-69
2021/05/06 08:24:51;;;;;;;12.65;11.35;;;11.00;99.90;;;;;;2077246;28;20508;-69
2021/05/06 08:25:51;;;;;;;12.65;11.45;;;11.00;99.90;;;;;;2075103;28;20030;-69
2021/05/06 08:26:52;;;;;;;11.10;10.00;;;11.00;99.90;;;;;;2075678;28;20100;-69
2021/05/06 08:27:53;;;;;;;11.82;10.60;;;11.10;99.90;;;;;;2076291;28;20033;-69
2021/05/06 08:28:54;;;;;;;11.82;10.70;;;11.10;99.90;;;;;;2076863;28;20029;-69
2021/05/06 08:29:54;;;;;;;12.50;11.10;;;11.10;99.90;;;;;;2079886;28;20034;-69
2021/05/06 08:30:55;;;;;;;11.60;10.52;;;11.20;99.90;;;;;;2079186;28;20022;-69
2021/05/06 08:31:56;;;;;;;11.98;10.57;;;11.20;99.90;;;;;;2080909;28;20376;-69
2021/05/06 08:32:56;;;;;;;12.68;11.32;;;11.20;99.90;;;;;;2081159;28;20017;-69
2021/05/06 08:33:58;;;;;;;11.73;10.52;;;11.20;99.90;;;;;;2082327;28;20017;-69
2021/05/06 08:34:58;;;;;;;11.75;10.55;;;11.30;99.90;;;;;;2082153;28;20049;-69